createdAt,value
2019-05-22T00:00:48.593Z,91.60
2019-05-22T00:05:11.327Z,91.40
2019-05-22T00:09:28.544Z,91.60
2019-05-22T00:13:36.912Z,91.80
2019-05-22T00:17:41.501Z,92.40
2019-05-22T00:21:49.307Z,92.30
2019-05-22T00:25:54.844Z,92.30
2019-05-22T00:30:00.735Z,91.80
2019-05-22T00:34:06.298Z,92.40
2019-05-22T00:38:12.003Z,92.00
2019-05-22T00:42:18.256Z,92.30
2019-05-22T00:46:24.542Z,92.10
2019-05-22T00:51:00.862Z,91.90
2019-05-22T00:55:21.088Z,91.90
2019-05-22T00:59:29.559Z,91.50
2019-05-22T01:03:36.401Z,92.00
2019-05-22T01:07:42.641Z,92.20
2019-05-22T01:11:48.326Z,92.60
2019-05-22T01:15:52.868Z,92.60
2019-05-22T01:19:59.001Z,92.10
2019-05-22T01:24:06.829Z,92.90
2019-05-22T01:28:13.531Z,92.20
2019-05-22T01:32:24.641Z,92.20
2019-05-22T01:36:38.462Z,92.00
2019-05-22T01:40:53.696Z,91.90
2019-05-22T01:45:05.812Z,92.10
2019-05-22T01:49:08.561Z,92.70
2019-05-22T01:53:15.599Z,92.00
2019-05-22T01:57:20.768Z,92.40
2019-05-22T02:01:27.331Z,92.50
2019-05-22T02:05:33.602Z,92.70
2019-05-22T02:09:40.901Z,93.20
2019-05-22T02:13:52.060Z,93.00
2019-05-22T02:17:58.128Z,92.60
2019-05-22T02:22:04.473Z,93.20
2019-05-22T02:26:11.003Z,93.00
2019-05-22T02:30:18.771Z,93.00
2019-05-22T02:34:23.538Z,93.10
2019-05-22T02:38:30.207Z,92.80
2019-05-22T02:42:35.273Z,92.90
2019-05-22T02:46:40.013Z,92.60
2019-05-22T02:50:46.203Z,92.60
2019-05-22T02:54:51.068Z,92.60
2019-05-22T02:58:57.945Z,93.10
2019-05-22T03:03:04.149Z,93.10
2019-05-22T03:07:10.133Z,92.70
2019-05-22T03:11:18.272Z,93.10
2019-05-22T03:15:24.480Z,92.70
2019-05-22T03:19:45.428Z,92.60
2019-05-22T03:23:50.050Z,92.60
2019-05-22T03:27:54.760Z,93.10
2019-05-22T03:31:59.422Z,93.10
2019-05-22T03:36:12.228Z,93.80
2019-05-22T03:40:17.572Z,93.50
2019-05-22T03:44:23.901Z,93.50
2019-05-22T03:48:33.383Z,93.40
2019-05-22T03:52:38.496Z,93.20
2019-05-22T03:56:43.981Z,93.60
2019-05-22T04:00:51.882Z,93.70
2019-05-22T04:04:56.848Z,93.40
2019-05-22T04:09:07.924Z,93.30
2019-05-22T04:13:12.797Z,93.20
2019-05-22T04:17:18.870Z,93.10
2019-05-22T04:21:23.537Z,92.90
2019-05-22T04:25:28.201Z,93.00
2019-05-22T04:29:33.725Z,93.80
2019-05-22T04:33:38.813Z,93.30
2019-05-22T04:37:44.705Z,93.30
2019-05-22T04:41:49.811Z,93.70
2019-05-22T04:45:57.174Z,93.60
2019-05-22T04:50:07.449Z,93.30
2019-05-22T04:54:08.385Z,93.60
2019-05-22T04:58:15.406Z,93.80
2019-05-22T05:02:20.274Z,93.20
2019-05-22T05:06:27.161Z,94.00
2019-05-22T05:10:31.793Z,93.70
2019-05-22T05:14:36.769Z,94.00
2019-05-22T05:18:41.574Z,93.50
2019-05-22T05:22:47.225Z,93.70
2019-05-22T05:26:53.183Z,93.40
2019-05-22T05:30:57.892Z,93.40
2019-05-22T05:35:07.520Z,93.90
2019-05-22T05:39:45.150Z,94.00
2019-05-22T05:43:50.265Z,92.90
2019-05-22T05:47:56.162Z,93.60
2019-05-22T05:52:00.741Z,93.10
2019-05-22T05:56:14.816Z,93.50
2019-05-22T06:00:22.651Z,93.60
2019-05-22T06:04:47.237Z,93.00
2019-05-22T06:08:52.320Z,93.20
2019-05-22T06:12:57.416Z,94.00
2019-05-22T06:17:52.031Z,93.60
2019-05-22T06:22:00.175Z,93.80
2019-05-22T06:26:04.897Z,93.50
2019-05-22T06:30:13.348Z,93.90
2019-05-22T06:34:17.897Z,93.60
2019-05-22T06:39:08.437Z,93.80
2019-05-22T06:43:58.118Z,93.60
2019-05-22T06:48:02.983Z,93.90
2019-05-22T06:52:08.394Z,93.70
2019-05-22T06:56:12.943Z,93.30
2019-05-22T07:00:21.775Z,93.90
2019-05-22T07:04:27.493Z,93.90
2019-05-22T07:08:32.128Z,93.80
2019-05-22T07:12:37.286Z,93.60
2019-05-22T07:16:44.436Z,93.50
2019-05-22T07:20:49.875Z,93.70
2019-05-22T07:24:54.520Z,93.50
2019-05-22T07:29:01.704Z,93.50
2019-05-22T07:33:05.910Z,93.30
2019-05-22T07:37:20.945Z,93.40
2019-05-22T07:41:25.741Z,93.40
2019-05-22T07:45:32.548Z,93.20
2019-05-22T07:49:37.266Z,93.20
2019-05-22T07:53:43.031Z,92.70
2019-05-22T07:57:49.654Z,92.90
2019-05-22T08:01:55.346Z,92.90
2019-05-22T08:06:00.596Z,92.90
2019-05-22T08:10:06.296Z,93.00
2019-05-22T08:14:13.345Z,92.50
2019-05-22T08:18:18.485Z,92.80
2019-05-22T08:22:23.640Z,92.50
2019-05-22T08:26:31.058Z,92.80
2019-05-22T08:30:35.597Z,92.70
2019-05-22T08:34:42.042Z,93.00
2019-05-22T08:38:46.755Z,92.40
2019-05-22T08:42:51.827Z,92.80
2019-05-22T08:46:56.743Z,92.70
2019-05-22T08:51:03.439Z,92.50
2019-05-22T08:55:09.055Z,92.40
2019-05-22T08:59:19.579Z,92.40
2019-05-22T09:03:20.005Z,92.70
2019-05-22T09:07:25.455Z,92.60
2019-05-22T09:11:30.038Z,92.60
2019-05-22T09:15:35.146Z,92.60
2019-05-22T09:19:39.688Z,92.50
2019-05-22T09:23:44.624Z,92.40
2019-05-22T09:27:49.528Z,92.40
2019-05-22T09:31:54.085Z,92.50
2019-05-22T09:35:58.761Z,92.40
2019-05-22T09:40:03.734Z,92.50
2019-05-22T09:44:08.490Z,92.30
2019-05-22T09:48:13.695Z,92.40
2019-05-22T09:52:18.335Z,92.10
2019-05-22T09:56:22.989Z,91.80
2019-05-22T10:00:28.599Z,91.70
2019-05-22T10:04:33.295Z,91.60
2019-05-22T10:08:37.849Z,91.70
2019-05-22T10:12:42.616Z,91.60
2019-05-22T10:16:47.151Z,91.40
2019-05-22T10:20:52.236Z,91.20
2019-05-22T10:25:15.084Z,91.50
2019-05-22T10:29:11.337Z,91.20
2019-05-22T10:33:15.971Z,91.10
2019-05-22T10:37:20.526Z,91.40
2019-05-22T10:41:25.032Z,91.20
2019-05-22T10:45:29.914Z,90.70
2019-05-22T10:49:34.467Z,90.60
2019-05-22T10:53:39.971Z,91.00
2019-05-22T10:57:44.920Z,91.10
2019-05-22T11:01:49.667Z,91.20
2019-05-22T11:06:06.698Z,90.40
2019-05-22T11:10:00.762Z,90.40
2019-05-22T11:14:09.298Z,90.30
2019-05-22T11:18:12.206Z,91.00
2019-05-22T11:22:17.614Z,90.80
2019-05-22T11:26:22.456Z,91.10
2019-05-22T11:30:27.432Z,90.10
2019-05-22T11:34:32.066Z,90.70
2019-05-22T11:38:36.656Z,90.10
2019-05-22T11:42:41.701Z,90.20
2019-05-22T11:46:46.264Z,88.50
2019-05-22T11:50:51.316Z,89.20
2019-05-22T11:54:55.864Z,88.60
2019-05-22T11:59:00.434Z,89.20
2019-05-22T12:03:07.678Z,89.10
2019-05-22T12:07:12.299Z,88.60
2019-05-22T12:11:19.225Z,86.80
2019-05-22T12:15:25.249Z,86.90
2019-05-22T12:19:29.984Z,86.50
2019-05-22T12:25:51.004Z,83.90
2019-05-22T12:29:55.676Z,85.10
2019-05-22T12:34:00.943Z,84.70
2019-05-22T12:38:06.669Z,83.60
2019-05-22T12:42:13.586Z,83.60
2019-05-22T12:46:19.809Z,83.60
2019-05-22T12:50:28.036Z,83.30
2019-05-22T12:54:45.865Z,83.10
2019-05-22T12:58:40.414Z,84.00
2019-05-22T13:02:44.960Z,84.20
2019-05-22T13:06:49.700Z,84.60
2019-05-22T13:10:54.560Z,85.80
2019-05-22T13:15:09.050Z,83.80
2019-05-22T13:19:06.109Z,83.70
2019-05-22T13:23:13.903Z,84.00
2019-05-22T13:27:19.965Z,85.20
2019-05-22T13:31:25.092Z,83.70
2019-05-22T13:35:30.999Z,83.20
2019-05-22T13:39:36.101Z,83.50
2019-05-22T13:43:40.813Z,83.90
2019-05-22T13:47:45.393Z,83.30
2019-05-22T13:51:50.141Z,83.10
2019-05-22T13:55:55.079Z,82.00
2019-05-22T13:59:59.740Z,80.20
2019-05-22T14:04:04.639Z,81.70
2019-05-22T14:08:09.522Z,81.30
2019-05-22T14:12:14.389Z,81.30
2019-05-22T14:16:19.858Z,83.30
2019-05-22T14:20:25.424Z,82.20
2019-05-22T14:24:30.034Z,81.40
2019-05-22T14:28:35.385Z,79.80
2019-05-22T14:32:40.368Z,78.80
2019-05-22T14:36:44.912Z,81.50
2019-05-22T14:40:49.664Z,80.80
2019-05-22T14:44:54.229Z,81.90
2019-05-22T14:48:58.888Z,80.20
2019-05-22T14:53:04.144Z,80.60
2019-05-22T14:57:09.747Z,82.90
2019-05-22T15:01:14.208Z,79.60
2019-05-22T15:05:19.005Z,80.30
2019-05-22T15:09:23.569Z,76.00
2019-05-22T15:13:28.758Z,75.80
2019-05-22T15:17:33.454Z,79.50
2019-05-22T15:21:38.467Z,77.10
2019-05-22T15:25:43.610Z,80.30
2019-05-22T15:29:48.160Z,78.00
2019-05-22T15:33:53.443Z,78.20
2019-05-22T15:37:59.683Z,77.10
2019-05-22T15:42:05.796Z,76.80
2019-05-22T15:46:12.977Z,77.30
2019-05-22T15:50:22.500Z,78.10
2019-05-22T15:54:31.104Z,75.70
2019-05-22T15:58:39.224Z,77.00
2019-05-22T16:02:47.235Z,77.50
2019-05-22T16:06:52.468Z,78.90
2019-05-22T16:11:00.430Z,77.40
2019-05-22T16:15:08.132Z,77.50
2019-05-22T16:19:13.494Z,78.50
2019-05-22T16:23:21.336Z,77.90
2019-05-22T16:27:25.773Z,77.30
2019-05-22T16:31:31.547Z,79.70
2019-05-22T16:35:36.595Z,80.00
2019-05-22T16:39:41.647Z,80.10
2019-05-22T16:43:49.592Z,78.60
2019-05-22T16:47:53.757Z,78.70
2019-05-22T16:52:01.068Z,78.40
2019-05-22T16:56:06.409Z,78.80
2019-05-22T17:00:14.090Z,78.20
2019-05-22T17:04:18.893Z,75.50
2019-05-22T17:08:24.036Z,78.10
2019-05-22T17:12:29.712Z,78.70
2019-05-22T17:16:37.132Z,79.30
2019-05-22T17:20:43.085Z,78.70
2019-05-22T17:24:47.732Z,77.80
2019-05-22T17:28:52.271Z,77.90
2019-05-22T17:32:59.340Z,78.30
2019-05-22T17:37:10.624Z,77.50
2019-05-22T17:41:15.773Z,76.70
2019-05-22T17:45:23.753Z,78.40
2019-05-22T17:49:28.260Z,79.00
2019-05-22T17:53:32.938Z,78.50
2019-05-22T17:57:38.197Z,79.40
2019-05-22T18:01:42.931Z,78.20
2019-05-22T18:05:47.999Z,78.80
2019-05-22T18:09:52.666Z,79.20
2019-05-22T18:14:04.018Z,78.70
2019-05-22T18:18:09.668Z,79.50
2019-05-22T18:22:14.713Z,79.80
2019-05-22T18:26:19.368Z,80.00
2019-05-22T18:30:24.474Z,80.10
2019-05-22T18:34:29.081Z,80.50
2019-05-22T18:38:33.619Z,80.60
2019-05-22T18:42:38.170Z,80.60
2019-05-22T18:46:42.751Z,80.60
2019-05-22T18:50:47.300Z,80.60
2019-05-22T18:54:51.920Z,80.60
2019-05-22T18:58:56.659Z,80.60
2019-05-22T19:03:01.363Z,80.60
2019-05-22T19:07:06.026Z,80.70
2019-05-22T19:11:10.554Z,79.90
2019-05-22T19:15:15.914Z,80.60
2019-05-22T19:19:20.623Z,80.70
2019-05-22T19:23:25.361Z,80.60
2019-05-22T19:27:29.909Z,80.80
2019-05-22T19:31:34.500Z,80.70
2019-05-22T19:35:39.057Z,80.80
2019-05-22T19:39:43.810Z,81.00
2019-05-22T19:43:48.917Z,80.90
2019-05-22T19:47:57.035Z,81.00
2019-05-22T19:52:02.000Z,81.10
2019-05-22T19:56:06.765Z,81.20
2019-05-22T20:00:12.398Z,81.20
2019-05-22T20:04:17.424Z,81.30
2019-05-22T20:08:22.673Z,81.30
2019-05-22T20:12:28.286Z,81.30
2019-05-22T20:16:33.115Z,81.40
2019-05-22T20:20:38.018Z,81.30
2019-05-22T20:24:42.696Z,81.30
2019-05-22T20:28:47.790Z,81.30
2019-05-22T20:32:52.325Z,81.30
2019-05-22T20:36:57.289Z,81.50
2019-05-22T20:41:02.149Z,81.40
2019-05-22T20:45:09.372Z,80.60
2019-05-22T20:49:15.952Z,81.40
2019-05-22T20:53:21.978Z,81.40
2019-05-22T20:57:27.853Z,80.60
2019-05-22T21:01:34.942Z,81.50
2019-05-22T21:05:41.952Z,81.50
2019-05-22T21:09:46.605Z,81.50
2019-05-22T21:13:51.416Z,80.70
2019-05-22T21:17:57.352Z,81.60
2019-05-22T21:22:02.855Z,80.90
2019-05-22T21:26:08.753Z,81.60
2019-05-22T21:30:15.041Z,81.00
2019-05-22T21:34:20.312Z,81.70
2019-05-22T21:38:26.743Z,81.80
2019-05-22T21:42:31.833Z,81.70
2019-05-22T21:46:37.083Z,81.70
2019-05-22T21:50:41.957Z,81.80
2019-05-22T21:54:47.101Z,81.10
2019-05-22T21:58:51.991Z,81.90
2019-05-22T22:02:57.500Z,81.00
2019-05-22T22:07:02.801Z,82.10
2019-05-22T22:11:07.714Z,81.90
2019-05-22T22:15:13.214Z,82.20
2019-05-22T22:19:18.491Z,82.20
2019-05-22T22:23:23.073Z,82.30
2019-05-22T22:27:28.002Z,81.70
2019-05-22T22:31:34.298Z,82.50
2019-05-22T22:35:40.370Z,83.20
2019-05-22T22:39:51.078Z,82.70
2019-05-22T22:43:58.569Z,82.30
2019-05-22T22:48:04.109Z,82.30
2019-05-22T22:52:09.634Z,82.20
2019-05-22T22:56:16.971Z,82.10
2019-05-22T23:00:32.428Z,82.40
2019-05-22T23:04:37.519Z,82.50
2019-05-22T23:08:42.930Z,82.70
2019-05-22T23:12:47.842Z,82.50
2019-05-22T23:16:52.924Z,82.10
2019-05-22T23:20:55.826Z,82.10
2019-05-22T23:25:00.885Z,82.00
2019-05-22T23:29:07.096Z,82.10
2019-05-22T23:33:11.921Z,82.30
2019-05-22T23:37:17.775Z,82.00
2019-05-22T23:41:24.261Z,82.10
2019-05-22T23:45:29.590Z,82.20
2019-05-22T23:49:36.081Z,82.00
2019-05-22T23:53:42.459Z,81.80
2019-05-22T23:57:49.129Z,81.90
